sensor_id;sensor_type;location;lat;lon;timestamp;P1;durP1;ratioP1;P2;durP2;ratioP2
64487;SDS011;50864;45.050;39.014;2022-12-07T00:00:54;16.20;;;11.70;;
64487;SDS011;50864;45.050;39.014;2022-12-07T00:03:31;12.60;;;8.20;;
64487;SDS011;50864;45.050;39.014;2022-12-07T00:05:58;10.90;;;7.50;;
64487;SDS011;50864;45.050;39.014;2022-12-07T00:08:24;11.00;;;6.95;;
64487;SDS011;50864;45.050;39.014;2022-12-07T00:10:50;8.75;;;5.45;;
64487;SDS011;50864;45.050;39.014;2022-12-07T00:13:16;9.73;;;5.97;;
64487;SDS011;50864;45.050;39.014;2022-12-07T00:15:42;10.13;;;6.05;;
64487;SDS011;50864;45.050;39.014;2022-12-07T00:18:08;13.48;;;7.87;;
64487;SDS011;50864;45.050;39.014;2022-12-07T00:20:34;10.05;;;6.72;;
64487;SDS011;50864;45.050;39.014;2022-12-07T00:23:00;8.02;;;5.32;;
64487;SDS011;50864;45.050;39.014;2022-12-07T00:25:26;11.95;;;7.28;;
64487;SDS011;50864;45.050;39.014;2022-12-07T00:27:53;8.27;;;5.72;;
64487;SDS011;50864;45.050;39.014;2022-12-07T00:30:21;10.38;;;5.95;;
64487;SDS011;50864;45.050;39.014;2022-12-07T00:32:49;8.63;;;5.78;;
64487;SDS011;50864;45.050;39.014;2022-12-07T00:35:15;12.23;;;7.25;;
64487;SDS011;50864;45.050;39.014;2022-12-07T00:37:41;14.20;;;8.02;;
64487;SDS011;50864;45.050;39.014;2022-12-07T00:40:07;10.52;;;6.72;;
64487;SDS011;50864;45.050;39.014;2022-12-07T00:42:33;9.90;;;7.15;;
64487;SDS011;50864;45.050;39.014;2022-12-07T00:45:02;9.98;;;5.30;;
64487;SDS011;50864;45.050;39.014;2022-12-07T00:47:28;11.73;;;7.78;;
64487;SDS011;50864;45.050;39.014;2022-12-07T00:49:54;9.00;;;5.07;;
64487;SDS011;50864;45.050;39.014;2022-12-07T00:52:20;12.35;;;8.98;;
64487;SDS011;50864;45.050;39.014;2022-12-07T00:54:46;12.82;;;8.32;;
64487;SDS011;50864;45.050;39.014;2022-12-07T00:57:12;13.38;;;7.80;;
64487;SDS011;50864;45.050;39.014;2022-12-07T00:59:38;11.65;;;6.85;;
64487;SDS011;50864;45.050;39.014;2022-12-07T01:02:04;9.57;;;6.20;;
64487;SDS011;50864;45.050;39.014;2022-12-07T01:04:30;7.55;;;4.55;;
64487;SDS011;50864;45.050;39.014;2022-12-07T01:06:59;11.18;;;6.30;;
64487;SDS011;50864;45.050;39.014;2022-12-07T01:09:25;13.00;;;8.52;;
64487;SDS011;50864;45.050;39.014;2022-12-07T01:11:51;8.48;;;5.22;;
64487;SDS011;50864;45.050;39.014;2022-12-07T01:14:17;12.40;;;6.82;;
64487;SDS011;50864;45.050;39.014;2022-12-07T01:16:43;8.60;;;5.45;;
64487;SDS011;50864;45.050;39.014;2022-12-07T01:19:09;10.00;;;6.18;;
64487;SDS011;50864;45.050;39.014;2022-12-07T01:21:35;11.12;;;7.62;;
64487;SDS011;50864;45.050;39.014;2022-12-07T01:24:03;9.52;;;5.85;;
64487;SDS011;50864;45.050;39.014;2022-12-07T01:26:32;10.38;;;6.45;;
64487;SDS011;50864;45.050;39.014;2022-12-07T01:28:58;9.85;;;5.82;;
64487;SDS011;50864;45.050;39.014;2022-12-07T01:31:26;8.75;;;4.32;;
64487;SDS011;50864;45.050;39.014;2022-12-07T01:33:54;10.95;;;6.93;;
64487;SDS011;50864;45.050;39.014;2022-12-07T01:36:22;11.23;;;5.40;;
64487;SDS011;50864;45.050;39.014;2022-12-07T01:38:51;9.50;;;4.87;;
64487;SDS011;50864;45.050;39.014;2022-12-07T01:41:22;10.38;;;6.47;;
64487;SDS011;50864;45.050;39.014;2022-12-07T01:46:41;7.37;;;4.97;;
64487;SDS011;50864;45.050;39.014;2022-12-07T01:49:10;9.15;;;5.57;;
64487;SDS011;50864;45.050;39.014;2022-12-07T01:51:41;13.43;;;7.97;;
64487;SDS011;50864;45.050;39.014;2022-12-07T01:54:09;12.43;;;7.10;;
64487;SDS011;50864;45.050;39.014;2022-12-07T01:56:36;5.73;;;4.03;;
64487;SDS011;50864;45.050;39.014;2022-12-07T01:59:04;8.27;;;4.93;;
64487;SDS011;50864;45.050;39.014;2022-12-07T02:01:30;8.30;;;5.50;;
64487;SDS011;50864;45.050;39.014;2022-12-07T02:03:57;10.50;;;6.43;;
64487;SDS011;50864;45.050;39.014;2022-12-07T02:06:24;11.20;;;6.60;;
64487;SDS011;50864;45.050;39.014;2022-12-07T02:08:51;8.17;;;4.70;;
64487;SDS011;50864;45.050;39.014;2022-12-07T02:11:18;7.30;;;4.60;;
64487;SDS011;50864;45.050;39.014;2022-12-07T02:13:44;7.60;;;5.60;;
64487;SDS011;50864;45.050;39.014;2022-12-07T02:21:51;9.60;;;5.50;;
64487;SDS011;50864;45.050;39.014;2022-12-07T02:24:36;11.43;;;7.60;;
64487;SDS011;50864;45.050;39.014;2022-12-07T02:27:19;11.07;;;5.87;;
64487;SDS011;50864;45.050;39.014;2022-12-07T02:30:07;7.40;;;4.37;;
64487;SDS011;50864;45.050;39.014;2022-12-07T02:35:38;6.63;;;4.73;;
64487;SDS011;50864;45.050;39.014;2022-12-07T02:40:34;8.20;;;4.10;;
64487;SDS011;50864;45.050;39.014;2022-12-07T02:43:13;9.83;;;5.77;;
64487;SDS011;50864;45.050;39.014;2022-12-07T02:45:45;11.43;;;5.87;;
64487;SDS011;50864;45.050;39.014;2022-12-07T02:48:13;13.93;;;7.10;;
64487;SDS011;50864;45.050;39.014;2022-12-07T02:50:48;9.40;;;5.20;;
64487;SDS011;50864;45.050;39.014;2022-12-07T02:56:02;13.53;;;8.37;;
64487;SDS011;50864;45.050;39.014;2022-12-07T02:59:02;8.40;;;5.07;;
64487;SDS011;50864;45.050;39.014;2022-12-07T03:05:00;12.82;;;7.37;;
64487;SDS011;50864;45.050;39.014;2022-12-07T03:07:55;8.50;;;5.03;;
64487;SDS011;50864;45.050;39.014;2022-12-07T03:10:45;10.30;;;5.10;;
64487;SDS011;50864;45.050;39.014;2022-12-07T03:13:33;14.55;;;7.10;;
64487;SDS011;50864;45.050;39.014;2022-12-07T03:16:15;9.90;;;5.90;;
64487;SDS011;50864;45.050;39.014;2022-12-07T03:18:49;7.25;;;4.45;;
64487;SDS011;50864;45.050;39.014;2022-12-07T03:21:21;9.60;;;5.82;;
64487;SDS011;50864;45.050;39.014;2022-12-07T03:23:52;8.57;;;4.87;;
64487;SDS011;50864;45.050;39.014;2022-12-07T03:26:22;13.03;;;6.80;;
64487;SDS011;50864;45.050;39.014;2022-12-07T03:28:54;11.98;;;5.12;;
64487;SDS011;50864;45.050;39.014;2022-12-07T03:31:33;9.60;;;5.47;;
64487;SDS011;50864;45.050;39.014;2022-12-07T03:34:14;10.20;;;5.27;;
64487;SDS011;50864;45.050;39.014;2022-12-07T03:39:17;9.43;;;4.97;;
64487;SDS011;50864;45.050;39.014;2022-12-07T03:41:53;11.30;;;6.10;;
64487;SDS011;50864;45.050;39.014;2022-12-07T03:44:20;6.30;;;3.93;;
64487;SDS011;50864;45.050;39.014;2022-12-07T03:46:52;17.20;;;5.80;;
64487;SDS011;50864;45.050;39.014;2022-12-07T03:52:03;11.32;;;5.72;;
64487;SDS011;50864;45.050;39.014;2022-12-07T03:54:34;10.33;;;5.90;;
64487;SDS011;50864;45.050;39.014;2022-12-07T03:57:06;11.23;;;7.10;;
64487;SDS011;50864;45.050;39.014;2022-12-07T03:59:34;8.97;;;6.03;;
64487;SDS011;50864;45.050;39.014;2022-12-07T04:02:01;14.17;;;6.63;;
64487;SDS011;50864;45.050;39.014;2022-12-07T04:04:29;12.90;;;7.67;;
64487;SDS011;50864;45.050;39.014;2022-12-07T04:06:55;12.63;;;6.33;;
64487;SDS011;50864;45.050;39.014;2022-12-07T04:09:21;12.20;;;7.67;;
64487;SDS011;50864;45.050;39.014;2022-12-07T04:11:47;12.17;;;7.90;;
64487;SDS011;50864;45.050;39.014;2022-12-07T04:14:13;12.70;;;4.73;;
64487;SDS011;50864;45.050;39.014;2022-12-07T04:16:46;13.62;;;9.07;;
64487;SDS011;50864;45.050;39.014;2022-12-07T04:19:22;15.03;;;7.13;;
64487;SDS011;50864;45.050;39.014;2022-12-07T04:21:53;13.07;;;6.50;;
64487;SDS011;50864;45.050;39.014;2022-12-07T04:24:20;6.50;;;4.10;;
64487;SDS011;50864;45.050;39.014;2022-12-07T04:26:46;11.50;;;5.43;;
64487;SDS011;50864;45.050;39.014;2022-12-07T04:29:13;12.77;;;6.60;;
64487;SDS011;50864;45.050;39.014;2022-12-07T04:31:40;9.93;;;5.30;;
64487;SDS011;50864;45.050;39.014;2022-12-07T04:34:06;13.83;;;8.40;;
64487;SDS011;50864;45.050;39.014;2022-12-07T04:36:33;13.87;;;6.87;;
64487;SDS011;50864;45.050;39.014;2022-12-07T04:38:59;12.10;;;7.10;;
64487;SDS011;50864;45.050;39.014;2022-12-07T04:41:26;9.87;;;5.40;;
64487;SDS011;50864;45.050;39.014;2022-12-07T04:43:55;9.27;;;5.50;;
64487;SDS011;50864;45.050;39.014;2022-12-07T04:46:23;18.03;;;6.57;;
64487;SDS011;50864;45.050;39.014;2022-12-07T04:48:51;14.37;;;7.60;;
64487;SDS011;50864;45.050;39.014;2022-12-07T04:51:35;14.87;;;7.80;;
64487;SDS011;50864;45.050;39.014;2022-12-07T04:54:02;14.87;;;5.80;;
64487;SDS011;50864;45.050;39.014;2022-12-07T04:56:29;12.57;;;7.33;;
64487;SDS011;50864;45.050;39.014;2022-12-07T04:58:55;11.90;;;6.77;;
64487;SDS011;50864;45.050;39.014;2022-12-07T05:01:21;16.63;;;9.37;;
64487;SDS011;50864;45.050;39.014;2022-12-07T05:03:48;7.70;;;5.43;;
64487;SDS011;50864;45.050;39.014;2022-12-07T05:06:14;12.13;;;7.00;;
64487;SDS011;50864;45.050;39.014;2022-12-07T05:08:40;15.10;;;7.93;;
64487;SDS011;50864;45.050;39.014;2022-12-07T05:11:08;13.00;;;6.50;;
64487;SDS011;50864;45.050;39.014;2022-12-07T05:13:55;10.73;;;6.57;;
64487;SDS011;50864;45.050;39.014;2022-12-07T05:16:21;12.53;;;6.10;;
64487;SDS011;50864;45.050;39.014;2022-12-07T05:18:47;13.23;;;7.53;;
64487;SDS011;50864;45.050;39.014;2022-12-07T05:21:13;12.47;;;6.80;;
64487;SDS011;50864;45.050;39.014;2022-12-07T05:23:39;6.20;;;4.47;;
64487;SDS011;50864;45.050;39.014;2022-12-07T05:26:05;18.40;;;7.77;;
64487;SDS011;50864;45.050;39.014;2022-12-07T05:28:31;15.70;;;7.00;;
64487;SDS011;50864;45.050;39.014;2022-12-07T05:30:57;5.93;;;4.80;;
64487;SDS011;50864;45.050;39.014;2022-12-07T05:33:23;9.60;;;4.87;;
64487;SDS011;50864;45.050;39.014;2022-12-07T05:35:49;15.57;;;8.40;;
64487;SDS011;50864;45.050;39.014;2022-12-07T05:38:15;18.62;;;10.05;;
64487;SDS011;50864;45.050;39.014;2022-12-07T05:40:42;12.70;;;7.25;;
64487;SDS011;50864;45.050;39.014;2022-12-07T05:43:08;9.27;;;6.03;;
64487;SDS011;50864;45.050;39.014;2022-12-07T05:45:35;12.35;;;6.22;;
64487;SDS011;50864;45.050;39.014;2022-12-07T05:48:01;15.20;;;7.93;;
64487;SDS011;50864;45.050;39.014;2022-12-07T05:50:28;15.45;;;5.87;;
64487;SDS011;50864;45.050;39.014;2022-12-07T05:52:59;21.05;;;6.30;;
64487;SDS011;50864;45.050;39.014;2022-12-07T05:55:25;15.35;;;8.40;;
64487;SDS011;50864;45.050;39.014;2022-12-07T05:57:51;14.43;;;7.37;;
64487;SDS011;50864;45.050;39.014;2022-12-07T06:00:35;14.02;;;8.45;;
64487;SDS011;50864;45.050;39.014;2022-12-07T06:03:02;12.02;;;7.57;;
64487;SDS011;50864;45.050;39.014;2022-12-07T06:05:28;17.27;;;8.57;;
64487;SDS011;50864;45.050;39.014;2022-12-07T06:07:53;11.85;;;7.53;;
64487;SDS011;50864;45.050;39.014;2022-12-07T06:10:20;14.10;;;8.13;;
64487;SDS011;50864;45.050;39.014;2022-12-07T06:12:46;13.73;;;7.35;;
64487;SDS011;50864;45.050;39.014;2022-12-07T06:15:12;10.13;;;6.12;;
64487;SDS011;50864;45.050;39.014;2022-12-07T06:17:38;12.60;;;8.40;;
64487;SDS011;50864;45.050;39.014;2022-12-07T06:20:05;11.50;;;6.37;;
64487;SDS011;50864;45.050;39.014;2022-12-07T06:22:31;9.25;;;4.85;;
64487;SDS011;50864;45.050;39.014;2022-12-07T06:24:58;12.82;;;8.07;;
64487;SDS011;50864;45.050;39.014;2022-12-07T06:27:24;12.95;;;7.22;;
64487;SDS011;50864;45.050;39.014;2022-12-07T06:29:50;13.27;;;8.18;;
64487;SDS011;50864;45.050;39.014;2022-12-07T06:32:16;12.70;;;8.00;;
64487;SDS011;50864;45.050;39.014;2022-12-07T06:34:42;14.57;;;8.77;;
64487;SDS011;50864;45.050;39.014;2022-12-07T06:37:07;14.30;;;6.37;;
64487;SDS011;50864;45.050;39.014;2022-12-07T06:39:34;16.15;;;8.73;;
64487;SDS011;50864;45.050;39.014;2022-12-07T06:42:01;18.40;;;9.88;;
64487;SDS011;50864;45.050;39.014;2022-12-07T06:44:27;16.50;;;10.00;;
64487;SDS011;50864;45.050;39.014;2022-12-07T06:46:55;6.57;;;4.37;;
64487;SDS011;50864;45.050;39.014;2022-12-07T06:49:21;14.20;;;8.88;;
64487;SDS011;50864;45.050;39.014;2022-12-07T06:51:47;13.02;;;6.43;;
64487;SDS011;50864;45.050;39.014;2022-12-07T06:54:14;12.32;;;6.37;;
64487;SDS011;50864;45.050;39.014;2022-12-07T06:56:40;13.95;;;8.57;;
64487;SDS011;50864;45.050;39.014;2022-12-07T06:59:07;14.95;;;9.05;;
64487;SDS011;50864;45.050;39.014;2022-12-07T07:01:33;7.80;;;5.12;;
64487;SDS011;50864;45.050;39.014;2022-12-07T07:04:00;18.77;;;10.13;;
64487;SDS011;50864;45.050;39.014;2022-12-07T07:06:27;16.08;;;7.05;;
64487;SDS011;50864;45.050;39.014;2022-12-07T07:08:53;20.95;;;12.45;;
64487;SDS011;50864;45.050;39.014;2022-12-07T07:11:19;14.10;;;8.45;;
64487;SDS011;50864;45.050;39.014;2022-12-07T07:13:45;18.70;;;10.80;;
64487;SDS011;50864;45.050;39.014;2022-12-07T07:16:11;16.40;;;9.32;;
64487;SDS011;50864;45.050;39.014;2022-12-07T07:18:37;13.85;;;8.55;;
64487;SDS011;50864;45.050;39.014;2022-12-07T07:21:03;18.73;;;10.00;;
64487;SDS011;50864;45.050;39.014;2022-12-07T07:23:30;18.30;;;10.15;;
64487;SDS011;50864;45.050;39.014;2022-12-07T07:25:56;19.12;;;10.35;;
64487;SDS011;50864;45.050;39.014;2022-12-07T07:28:22;18.65;;;10.80;;
64487;SDS011;50864;45.050;39.014;2022-12-07T07:30:49;22.55;;;12.93;;
64487;SDS011;50864;45.050;39.014;2022-12-07T07:33:15;17.62;;;8.98;;
64487;SDS011;50864;45.050;39.014;2022-12-07T07:35:40;17.27;;;9.27;;
64487;SDS011;50864;45.050;39.014;2022-12-07T07:38:07;26.20;;;10.80;;
64487;SDS011;50864;45.050;39.014;2022-12-07T07:40:34;19.12;;;10.93;;
64487;SDS011;50864;45.050;39.014;2022-12-07T07:43:00;26.60;;;14.75;;
64487;SDS011;50864;45.050;39.014;2022-12-07T07:45:27;23.83;;;11.63;;
64487;SDS011;50864;45.050;39.014;2022-12-07T07:47:53;15.23;;;7.82;;
64487;SDS011;50864;45.050;39.014;2022-12-07T07:50:19;12.63;;;7.55;;
64487;SDS011;50864;45.050;39.014;2022-12-07T07:52:46;16.55;;;10.27;;
64487;SDS011;50864;45.050;39.014;2022-12-07T07:55:13;11.90;;;6.50;;
64487;SDS011;50864;45.050;39.014;2022-12-07T07:57:39;9.27;;;5.03;;
64487;SDS011;50864;45.050;39.014;2022-12-07T08:00:07;13.10;;;7.72;;
64487;SDS011;50864;45.050;39.014;2022-12-07T08:02:38;19.50;;;9.05;;
64487;SDS011;50864;45.050;39.014;2022-12-07T08:05:05;15.15;;;8.88;;
64487;SDS011;50864;45.050;39.014;2022-12-07T08:07:31;12.80;;;7.37;;
64487;SDS011;50864;45.050;39.014;2022-12-07T08:09:58;13.35;;;8.15;;
64487;SDS011;50864;45.050;39.014;2022-12-07T08:12:23;17.08;;;10.00;;
64487;SDS011;50864;45.050;39.014;2022-12-07T08:14:49;17.80;;;10.48;;
64487;SDS011;50864;45.050;39.014;2022-12-07T08:17:15;13.35;;;8.57;;
64487;SDS011;50864;45.050;39.014;2022-12-07T08:19:41;16.65;;;8.73;;
64487;SDS011;50864;45.050;39.014;2022-12-07T08:22:07;11.60;;;6.72;;
64487;SDS011;50864;45.050;39.014;2022-12-07T08:24:34;8.25;;;5.47;;
64487;SDS011;50864;45.050;39.014;2022-12-07T08:27:00;13.15;;;8.18;;
64487;SDS011;50864;45.050;39.014;2022-12-07T08:29:26;15.82;;;8.57;;
64487;SDS011;50864;45.050;39.014;2022-12-07T08:31:52;18.15;;;10.50;;
64487;SDS011;50864;45.050;39.014;2022-12-07T08:34:18;9.73;;;5.80;;
64487;SDS011;50864;45.050;39.014;2022-12-07T08:36:44;18.17;;;10.73;;
64487;SDS011;50864;45.050;39.014;2022-12-07T08:39:11;18.17;;;8.80;;
64487;SDS011;50864;45.050;39.014;2022-12-07T08:41:36;17.42;;;10.05;;
64487;SDS011;50864;45.050;39.014;2022-12-07T08:44:02;15.80;;;9.30;;
64487;SDS011;50864;45.050;39.014;2022-12-07T08:46:31;12.77;;;7.53;;
64487;SDS011;50864;45.050;39.014;2022-12-07T08:51:48;10.30;;;6.65;;
64487;SDS011;50864;45.050;39.014;2022-12-07T08:54:15;18.15;;;9.07;;
64487;SDS011;50864;45.050;39.014;2022-12-07T08:56:43;15.80;;;7.70;;
64487;SDS011;50864;45.050;39.014;2022-12-07T08:59:10;13.35;;;8.60;;
64487;SDS011;50864;45.050;39.014;2022-12-07T09:01:39;13.15;;;6.87;;
64487;SDS011;50864;45.050;39.014;2022-12-07T09:04:05;8.57;;;5.53;;
64487;SDS011;50864;45.050;39.014;2022-12-07T09:06:31;9.65;;;5.87;;
64487;SDS011;50864;45.050;39.014;2022-12-07T09:08:58;10.25;;;5.65;;
64487;SDS011;50864;45.050;39.014;2022-12-07T09:11:26;15.98;;;8.15;;
64487;SDS011;50864;45.050;39.014;2022-12-07T09:13:53;14.23;;;7.15;;
64487;SDS011;50864;45.050;39.014;2022-12-07T09:16:19;10.77;;;6.65;;
64487;SDS011;50864;45.050;39.014;2022-12-07T09:18:44;14.70;;;8.77;;
64487;SDS011;50864;45.050;39.014;2022-12-07T09:21:11;11.70;;;7.62;;
64487;SDS011;50864;45.050;39.014;2022-12-07T09:23:37;12.43;;;8.10;;
64487;SDS011;50864;45.050;39.014;2022-12-07T09:26:03;16.12;;;9.38;;
64487;SDS011;50864;45.050;39.014;2022-12-07T09:28:30;18.52;;;10.88;;
64487;SDS011;50864;45.050;39.014;2022-12-07T09:30:56;16.87;;;9.70;;
64487;SDS011;50864;45.050;39.014;2022-12-07T09:33:22;19.83;;;10.55;;
64487;SDS011;50864;45.050;39.014;2022-12-07T09:35:49;18.48;;;9.10;;
64487;SDS011;50864;45.050;39.014;2022-12-07T09:38:17;15.95;;;9.00;;
64487;SDS011;50864;45.050;39.014;2022-12-07T09:40:44;14.43;;;8.23;;
64487;SDS011;50864;45.050;39.014;2022-12-07T09:43:14;23.52;;;11.07;;
64487;SDS011;50864;45.050;39.014;2022-12-07T09:45:46;16.55;;;9.82;;
64487;SDS011;50864;45.050;39.014;2022-12-07T09:48:26;12.18;;;7.10;;
64487;SDS011;50864;45.050;39.014;2022-12-07T09:51:02;17.95;;;8.43;;
64487;SDS011;50864;45.050;39.014;2022-12-07T09:53:37;17.08;;;10.10;;
64487;SDS011;50864;45.050;39.014;2022-12-07T09:56:04;17.42;;;10.10;;
64487;SDS011;50864;45.050;39.014;2022-12-07T09:58:31;20.12;;;12.18;;
64487;SDS011;50864;45.050;39.014;2022-12-07T10:01:00;16.90;;;10.25;;
64487;SDS011;50864;45.050;39.014;2022-12-07T10:03:48;20.02;;;10.68;;
64487;SDS011;50864;45.050;39.014;2022-12-07T10:06:17;12.05;;;8.20;;
64487;SDS011;50864;45.050;39.014;2022-12-07T10:08:43;20.42;;;11.90;;
64487;SDS011;50864;45.050;39.014;2022-12-07T10:11:09;22.20;;;10.82;;
64487;SDS011;50864;45.050;39.014;2022-12-07T10:13:37;21.30;;;12.52;;
64487;SDS011;50864;45.050;39.014;2022-12-07T10:24:49;17.42;;;10.13;;
64487;SDS011;50864;45.050;39.014;2022-12-07T10:27:17;24.67;;;12.37;;
64487;SDS011;50864;45.050;39.014;2022-12-07T10:29:46;16.12;;;9.38;;
64487;SDS011;50864;45.050;39.014;2022-12-07T10:34:44;15.18;;;7.93;;
64487;SDS011;50864;45.050;39.014;2022-12-07T10:37:15;17.75;;;10.73;;
64487;SDS011;50864;45.050;39.014;2022-12-07T10:42:35;17.80;;;9.43;;
64487;SDS011;50864;45.050;39.014;2022-12-07T10:45:17;17.85;;;9.35;;
64487;SDS011;50864;45.050;39.014;2022-12-07T10:52:58;15.05;;;8.93;;
64487;SDS011;50864;45.050;39.014;2022-12-07T10:58:22;10.82;;;7.10;;
64487;SDS011;50864;45.050;39.014;2022-12-07T11:09:32;20.00;;;10.73;;
64487;SDS011;50864;45.050;39.014;2022-12-07T11:12:35;19.77;;;11.98;;
64487;SDS011;50864;45.050;39.014;2022-12-07T11:18:29;17.95;;;9.07;;
64487;SDS011;50864;45.050;39.014;2022-12-07T11:21:14;18.52;;;11.45;;
64487;SDS011;50864;45.050;39.014;2022-12-07T11:31:59;16.27;;;8.88;;
64487;SDS011;50864;45.050;39.014;2022-12-07T11:37:15;14.13;;;8.18;;
64487;SDS011;50864;45.050;39.014;2022-12-07T11:39:55;16.05;;;9.02;;
64487;SDS011;50864;45.050;39.014;2022-12-07T11:42:27;18.20;;;10.02;;
64487;SDS011;50864;45.050;39.014;2022-12-07T11:45:02;17.02;;;7.57;;
64487;SDS011;50864;45.050;39.014;2022-12-07T11:47:47;15.80;;;8.38;;
64487;SDS011;50864;45.050;39.014;2022-12-07T11:53:14;16.20;;;8.20;;
64487;SDS011;50864;45.050;39.014;2022-12-07T11:56:02;16.05;;;8.95;;
64487;SDS011;50864;45.050;39.014;2022-12-07T12:03:52;18.23;;;8.35;;
64487;SDS011;50864;45.050;39.014;2022-12-07T12:06:23;14.68;;;7.55;;
64487;SDS011;50864;45.050;39.014;2022-12-07T12:09:02;14.40;;;7.80;;
64487;SDS011;50864;45.050;39.014;2022-12-07T12:14:32;14.93;;;8.52;;
64487;SDS011;50864;45.050;39.014;2022-12-07T12:20:13;13.35;;;6.87;;
64487;SDS011;50864;45.050;39.014;2022-12-07T12:22:43;19.05;;;11.30;;
64487;SDS011;50864;45.050;39.014;2022-12-07T12:25:34;12.70;;;6.93;;
64487;SDS011;50864;45.050;39.014;2022-12-07T12:28:03;17.75;;;8.23;;
64487;SDS011;50864;45.050;39.014;2022-12-07T12:30:31;15.25;;;8.55;;
64487;SDS011;50864;45.050;39.014;2022-12-07T12:33:27;18.00;;;9.45;;
64487;SDS011;50864;45.050;39.014;2022-12-07T12:51:58;15.70;;;10.13;;
64487;SDS011;50864;45.050;39.014;2022-12-07T12:55:26;14.70;;;7.05;;
64487;SDS011;50864;45.050;39.014;2022-12-07T12:57:45;20.15;;;10.20;;
64487;SDS011;50864;45.050;39.014;2022-12-07T13:02:54;15.50;;;7.78;;
64487;SDS011;50864;45.050;39.014;2022-12-07T13:05:31;12.68;;;7.07;;
64487;SDS011;50864;45.050;39.014;2022-12-07T13:07:58;13.90;;;8.75;;
64487;SDS011;50864;45.050;39.014;2022-12-07T13:10:39;17.58;;;8.25;;
64487;SDS011;50864;45.050;39.014;2022-12-07T13:15:50;19.92;;;9.35;;
64487;SDS011;50864;45.050;39.014;2022-12-07T13:34:34;31.92;;;17.12;;
64487;SDS011;50864;45.050;39.014;2022-12-07T13:37:15;19.40;;;10.40;;
64487;SDS011;50864;45.050;39.014;2022-12-07T13:40:26;28.38;;;12.40;;
64487;SDS011;50864;45.050;39.014;2022-12-07T13:42:44;22.90;;;10.00;;
64487;SDS011;50864;45.050;39.014;2022-12-07T13:48:14;26.40;;;12.98;;
64487;SDS011;50864;45.050;39.014;2022-12-07T13:50:41;31.98;;;12.98;;
64487;SDS011;50864;45.050;39.014;2022-12-07T13:53:10;26.62;;;14.23;;
64487;SDS011;50864;45.050;39.014;2022-12-07T13:55:43;43.20;;;21.15;;
64487;SDS011;50864;45.050;39.014;2022-12-07T13:58:11;32.13;;;18.58;;
64487;SDS011;50864;45.050;39.014;2022-12-07T14:00:39;20.67;;;13.27;;
64487;SDS011;50864;45.050;39.014;2022-12-07T14:05:38;23.40;;;11.77;;
64487;SDS011;50864;45.050;39.014;2022-12-07T14:08:21;17.33;;;10.48;;
64487;SDS011;50864;45.050;39.014;2022-12-07T14:15:51;22.90;;;10.23;;
64487;SDS011;50864;45.050;39.014;2022-12-07T14:18:28;17.70;;;11.35;;
64487;SDS011;50864;45.050;39.014;2022-12-07T14:21:05;17.98;;;9.77;;
64487;SDS011;50864;45.050;39.014;2022-12-07T14:23:43;26.12;;;9.73;;
64487;SDS011;50864;45.050;39.014;2022-12-07T14:26:26;18.80;;;9.85;;
64487;SDS011;50864;45.050;39.014;2022-12-07T14:28:53;21.62;;;8.60;;
64487;SDS011;50864;45.050;39.014;2022-12-07T14:31:46;14.52;;;7.35;;
64487;SDS011;50864;45.050;39.014;2022-12-07T14:34:12;15.25;;;8.80;;
64487;SDS011;50864;45.050;39.014;2022-12-07T14:36:38;13.62;;;7.22;;
64487;SDS011;50864;45.050;39.014;2022-12-07T14:39:04;17.50;;;10.32;;
64487;SDS011;50864;45.050;39.014;2022-12-07T14:41:30;15.48;;;7.93;;
64487;SDS011;50864;45.050;39.014;2022-12-07T14:44:15;18.62;;;9.10;;
64487;SDS011;50864;45.050;39.014;2022-12-07T14:46:42;18.15;;;9.13;;
64487;SDS011;50864;45.050;39.014;2022-12-07T14:49:08;18.98;;;10.40;;
64487;SDS011;50864;45.050;39.014;2022-12-07T14:51:34;14.20;;;8.18;;
64487;SDS011;50864;45.050;39.014;2022-12-07T14:54:03;19.87;;;9.52;;
64487;SDS011;50864;45.050;39.014;2022-12-07T14:56:30;20.73;;;12.05;;
64487;SDS011;50864;45.050;39.014;2022-12-07T14:58:56;17.42;;;9.82;;
64487;SDS011;50864;45.050;39.014;2022-12-07T15:01:23;18.35;;;8.18;;
64487;SDS011;50864;45.050;39.014;2022-12-07T15:03:49;20.67;;;11.30;;
64487;SDS011;50864;45.050;39.014;2022-12-07T15:06:16;16.08;;;9.40;;
64487;SDS011;50864;45.050;39.014;2022-12-07T15:08:43;17.08;;;9.30;;
64487;SDS011;50864;45.050;39.014;2022-12-07T15:11:13;18.48;;;11.20;;
64487;SDS011;50864;45.050;39.014;2022-12-07T15:13:39;23.90;;;10.30;;
64487;SDS011;50864;45.050;39.014;2022-12-07T15:16:24;17.12;;;9.95;;
64487;SDS011;50864;45.050;39.014;2022-12-07T15:18:50;24.15;;;11.32;;
64487;SDS011;50864;45.050;39.014;2022-12-07T15:21:17;21.23;;;11.10;;
64487;SDS011;50864;45.050;39.014;2022-12-07T15:23:43;12.57;;;7.35;;
64487;SDS011;50864;45.050;39.014;2022-12-07T15:26:10;19.00;;;10.10;;
64487;SDS011;50864;45.050;39.014;2022-12-07T15:28:36;28.20;;;10.07;;
64487;SDS011;50864;45.050;39.014;2022-12-07T15:31:02;20.70;;;10.82;;
64487;SDS011;50864;45.050;39.014;2022-12-07T15:33:28;18.60;;;10.48;;
64487;SDS011;50864;45.050;39.014;2022-12-07T15:35:54;16.70;;;9.27;;
64487;SDS011;50864;45.050;39.014;2022-12-07T15:38:20;18.42;;;11.20;;
64487;SDS011;50864;45.050;39.014;2022-12-07T15:40:47;20.05;;;12.85;;
64487;SDS011;50864;45.050;39.014;2022-12-07T15:43:14;14.48;;;7.45;;
64487;SDS011;50864;45.050;39.014;2022-12-07T15:45:59;19.58;;;10.82;;
64487;SDS011;50864;45.050;39.014;2022-12-07T15:48:25;14.80;;;8.57;;
64487;SDS011;50864;45.050;39.014;2022-12-07T15:50:51;20.23;;;11.40;;
64487;SDS011;50864;45.050;39.014;2022-12-07T15:53:18;15.93;;;8.95;;
64487;SDS011;50864;45.050;39.014;2022-12-07T15:55:44;20.88;;;10.52;;
64487;SDS011;50864;45.050;39.014;2022-12-07T15:58:10;21.02;;;10.57;;
64487;SDS011;50864;45.050;39.014;2022-12-07T16:00:36;21.52;;;11.05;;
64487;SDS011;50864;45.050;39.014;2022-12-07T16:03:02;20.58;;;11.98;;
64487;SDS011;50864;45.050;39.014;2022-12-07T16:05:29;23.85;;;12.15;;
64487;SDS011;50864;45.050;39.014;2022-12-07T16:07:55;17.92;;;9.57;;
64487;SDS011;50864;45.050;39.014;2022-12-07T16:10:21;29.75;;;14.02;;
64487;SDS011;50864;45.050;39.014;2022-12-07T16:12:47;17.73;;;7.85;;
64487;SDS011;50864;45.050;39.014;2022-12-07T16:15:12;16.48;;;9.25;;
64487;SDS011;50864;45.050;39.014;2022-12-07T16:17:39;26.27;;;9.65;;
64487;SDS011;50864;45.050;39.014;2022-12-07T16:20:05;19.12;;;9.68;;
64487;SDS011;50864;45.050;39.014;2022-12-07T16:22:31;22.73;;;11.12;;
64487;SDS011;50864;45.050;39.014;2022-12-07T16:24:57;19.65;;;9.98;;
64487;SDS011;50864;45.050;39.014;2022-12-07T16:27:23;22.52;;;9.93;;
64487;SDS011;50864;45.050;39.014;2022-12-07T16:29:49;26.55;;;12.07;;
64487;SDS011;50864;45.050;39.014;2022-12-07T16:32:15;27.13;;;15.98;;
64487;SDS011;50864;45.050;39.014;2022-12-07T16:34:41;26.40;;;12.82;;
64487;SDS011;50864;45.050;39.014;2022-12-07T16:37:07;20.00;;;11.25;;
64487;SDS011;50864;45.050;39.014;2022-12-07T16:39:33;18.67;;;10.70;;
64487;SDS011;50864;45.050;39.014;2022-12-07T16:42:00;16.67;;;9.57;;
64487;SDS011;50864;45.050;39.014;2022-12-07T16:44:26;20.98;;;9.98;;
64487;SDS011;50864;45.050;39.014;2022-12-07T16:46:53;12.93;;;8.10;;
64487;SDS011;50864;45.050;39.014;2022-12-07T16:49:19;18.30;;;10.73;;